sensor_id;sensor_type;location;lat;lon;timestamp;P1;durP1;ratioP1;P2;durP2;ratioP2
65599;SDS011;52272;-29.642;-50.764;2022-07-01T00:02:21;25.52;;;15.18;;
65599;SDS011;52272;-29.642;-50.764;2022-07-01T00:04:52;18.58;;;11.32;;
65599;SDS011;52272;-29.642;-50.764;2022-07-01T00:07:41;19.90;;;12.52;;
65599;SDS011;52272;-29.642;-50.764;2022-07-01T00:10:11;31.35;;;19.77;;
65599;SDS011;52272;-29.642;-50.764;2022-07-01T00:12:42;32.92;;;21.40;;
65599;SDS011;52272;-29.642;-50.764;2022-07-01T00:17:43;32.20;;;19.95;;
65599;SDS011;52272;-29.642;-50.764;2022-07-01T00:20:13;26.20;;;16.83;;
65599;SDS011;52272;-29.642;-50.764;2022-07-01T00:22:43;26.02;;;17.40;;
65599;SDS011;52272;-29.642;-50.764;2022-07-01T00:25:14;36.13;;;21.40;;
65599;SDS011;52272;-29.642;-50.764;2022-07-01T00:27:44;38.45;;;23.75;;
65599;SDS011;52272;-29.642;-50.764;2022-07-01T00:30:14;31.92;;;21.05;;
65599;SDS011;52272;-29.642;-50.764;2022-07-01T00:32:49;31.85;;;18.73;;
65599;SDS011;52272;-29.642;-50.764;2022-07-01T00:35:22;31.55;;;19.00;;
65599;SDS011;52272;-29.642;-50.764;2022-07-01T00:37:52;26.08;;;17.70;;
65599;SDS011;52272;-29.642;-50.764;2022-07-01T00:40:23;19.90;;;12.95;;
65599;SDS011;52272;-29.642;-50.764;2022-07-01T00:42:53;20.70;;;13.13;;
65599;SDS011;52272;-29.642;-50.764;2022-07-01T00:45:24;31.27;;;17.23;;
65599;SDS011;52272;-29.642;-50.764;2022-07-01T00:47:54;26.95;;;15.65;;
65599;SDS011;52272;-29.642;-50.764;2022-07-01T00:50:25;25.48;;;15.00;;
65599;SDS011;52272;-29.642;-50.764;2022-07-01T00:52:55;22.95;;;15.77;;
65599;SDS011;52272;-29.642;-50.764;2022-07-01T00:55:26;23.00;;;14.18;;
65599;SDS011;52272;-29.642;-50.764;2022-07-01T00:57:56;21.50;;;14.38;;
65599;SDS011;52272;-29.642;-50.764;2022-07-01T01:00:26;22.75;;;13.32;;
65599;SDS011;52272;-29.642;-50.764;2022-07-01T01:02:56;20.30;;;12.82;;
65599;SDS011;52272;-29.642;-50.764;2022-07-01T01:05:27;19.77;;;11.50;;
65599;SDS011;52272;-29.642;-50.764;2022-07-01T01:07:57;20.80;;;12.02;;
65599;SDS011;52272;-29.642;-50.764;2022-07-01T01:10:28;15.63;;;10.48;;
65599;SDS011;52272;-29.642;-50.764;2022-07-01T01:12:59;20.05;;;14.18;;
65599;SDS011;52272;-29.642;-50.764;2022-07-01T01:15:30;16.33;;;10.70;;
65599;SDS011;52272;-29.642;-50.764;2022-07-01T01:18:00;21.73;;;13.95;;
65599;SDS011;52272;-29.642;-50.764;2022-07-01T01:20:35;17.60;;;11.88;;
65599;SDS011;52272;-29.642;-50.764;2022-07-01T01:23:05;19.27;;;12.70;;
65599;SDS011;52272;-29.642;-50.764;2022-07-01T01:25:38;24.27;;;12.88;;
65599;SDS011;52272;-29.642;-50.764;2022-07-01T01:28:08;14.07;;;9.30;;
65599;SDS011;52272;-29.642;-50.764;2022-07-01T01:30:40;24.17;;;11.30;;
65599;SDS011;52272;-29.642;-50.764;2022-07-01T01:33:13;18.27;;;11.18;;
65599;SDS011;52272;-29.642;-50.764;2022-07-01T01:35:43;20.30;;;11.10;;
65599;SDS011;52272;-29.642;-50.764;2022-07-01T01:38:13;17.33;;;11.13;;
65599;SDS011;52272;-29.642;-50.764;2022-07-01T01:40:43;15.05;;;9.35;;
65599;SDS011;52272;-29.642;-50.764;2022-07-01T01:43:13;18.17;;;9.35;;
65599;SDS011;52272;-29.642;-50.764;2022-07-01T01:45:45;16.35;;;11.85;;
65599;SDS011;52272;-29.642;-50.764;2022-07-01T01:48:15;55.40;;;12.93;;
65599;SDS011;52272;-29.642;-50.764;2022-07-01T01:50:45;17.50;;;11.80;;
65599;SDS011;52272;-29.642;-50.764;2022-07-01T01:53:15;21.80;;;12.55;;
65599;SDS011;52272;-29.642;-50.764;2022-07-01T01:55:46;15.25;;;10.25;;
65599;SDS011;52272;-29.642;-50.764;2022-07-01T01:58:18;14.68;;;10.63;;
65599;SDS011;52272;-29.642;-50.764;2022-07-01T02:00:51;15.15;;;10.13;;
65599;SDS011;52272;-29.642;-50.764;2022-07-01T02:03:21;18.33;;;10.07;;
65599;SDS011;52272;-29.642;-50.764;2022-07-01T02:05:52;13.85;;;9.48;;
65599;SDS011;52272;-29.642;-50.764;2022-07-01T02:08:22;14.07;;;9.30;;
65599;SDS011;52272;-29.642;-50.764;2022-07-01T02:10:52;15.48;;;9.40;;
65599;SDS011;52272;-29.642;-50.764;2022-07-01T02:13:29;14.48;;;8.98;;
65599;SDS011;52272;-29.642;-50.764;2022-07-01T02:15:58;12.57;;;8.98;;
65599;SDS011;52272;-29.642;-50.764;2022-07-01T02:18:29;16.38;;;9.38;;
65599;SDS011;52272;-29.642;-50.764;2022-07-01T02:21:01;13.90;;;8.80;;
65599;SDS011;52272;-29.642;-50.764;2022-07-01T02:23:37;18.80;;;11.10;;
65599;SDS011;52272;-29.642;-50.764;2022-07-01T02:26:07;19.95;;;11.68;;
65599;SDS011;52272;-29.642;-50.764;2022-07-01T02:28:38;29.90;;;14.63;;
65599;SDS011;52272;-29.642;-50.764;2022-07-01T02:31:11;18.92;;;11.60;;
65599;SDS011;52272;-29.642;-50.764;2022-07-01T02:33:41;20.35;;;11.40;;
65599;SDS011;52272;-29.642;-50.764;2022-07-01T02:36:11;14.23;;;7.75;;
65599;SDS011;52272;-29.642;-50.764;2022-07-01T02:38:41;14.95;;;8.25;;
65599;SDS011;52272;-29.642;-50.764;2022-07-01T02:41:12;14.85;;;9.02;;
65599;SDS011;52272;-29.642;-50.764;2022-07-01T02:43:41;17.35;;;10.40;;
65599;SDS011;52272;-29.642;-50.764;2022-07-01T02:46:12;17.00;;;10.90;;
65599;SDS011;52272;-29.642;-50.764;2022-07-01T02:48:42;17.58;;;10.20;;
65599;SDS011;52272;-29.642;-50.764;2022-07-01T02:51:12;17.23;;;10.57;;
65599;SDS011;52272;-29.642;-50.764;2022-07-01T02:53:43;23.58;;;12.05;;
65599;SDS011;52272;-29.642;-50.764;2022-07-01T02:56:13;24.88;;;14.80;;
65599;SDS011;52272;-29.642;-50.764;2022-07-01T02:58:43;29.20;;;15.35;;
65599;SDS011;52272;-29.642;-50.764;2022-07-01T03:01:14;32.17;;;17.00;;
65599;SDS011;52272;-29.642;-50.764;2022-07-01T03:03:44;35.08;;;21.35;;
65599;SDS011;52272;-29.642;-50.764;2022-07-01T03:06:14;35.58;;;20.60;;
65599;SDS011;52272;-29.642;-50.764;2022-07-01T03:08:44;37.65;;;21.65;;
65599;SDS011;52272;-29.642;-50.764;2022-07-01T03:11:14;45.10;;;23.25;;
65599;SDS011;52272;-29.642;-50.764;2022-07-01T03:13:44;39.03;;;21.60;;
65599;SDS011;52272;-29.642;-50.764;2022-07-01T03:16:17;33.45;;;19.58;;
65599;SDS011;52272;-29.642;-50.764;2022-07-01T03:18:48;38.08;;;20.73;;
65599;SDS011;52272;-29.642;-50.764;2022-07-01T03:21:18;36.72;;;19.08;;
65599;SDS011;52272;-29.642;-50.764;2022-07-01T03:23:48;21.50;;;12.73;;
65599;SDS011;52272;-29.642;-50.764;2022-07-01T03:26:18;18.90;;;12.10;;
65599;SDS011;52272;-29.642;-50.764;2022-07-01T03:28:48;36.45;;;12.65;;
65599;SDS011;52272;-29.642;-50.764;2022-07-01T03:31:19;13.60;;;8.63;;
65599;SDS011;52272;-29.642;-50.764;2022-07-01T03:33:50;13.27;;;9.02;;
65599;SDS011;52272;-29.642;-50.764;2022-07-01T03:36:21;25.90;;;14.82;;
65599;SDS011;52272;-29.642;-50.764;2022-07-01T03:38:51;28.10;;;16.48;;
65599;SDS011;52272;-29.642;-50.764;2022-07-01T03:41:21;30.05;;;17.38;;
65599;SDS011;52272;-29.642;-50.764;2022-07-01T03:43:51;27.00;;;17.05;;
65599;SDS011;52272;-29.642;-50.764;2022-07-01T03:46:21;26.98;;;16.73;;
65599;SDS011;52272;-29.642;-50.764;2022-07-01T03:48:51;32.58;;;17.88;;
65599;SDS011;52272;-29.642;-50.764;2022-07-01T03:51:21;37.65;;;19.65;;
65599;SDS011;52272;-29.642;-50.764;2022-07-01T03:53:51;33.75;;;18.40;;
65599;SDS011;52272;-29.642;-50.764;2022-07-01T03:56:40;31.33;;;18.05;;
65599;SDS011;52272;-29.642;-50.764;2022-07-01T03:59:10;32.63;;;19.23;;
65599;SDS011;52272;-29.642;-50.764;2022-07-01T04:01:40;32.97;;;18.80;;
65599;SDS011;52272;-29.642;-50.764;2022-07-01T04:04:10;32.95;;;18.52;;
65599;SDS011;52272;-29.642;-50.764;2022-07-01T04:06:44;27.17;;;16.88;;
65599;SDS011;52272;-29.642;-50.764;2022-07-01T04:09:16;23.38;;;14.63;;
65599;SDS011;52272;-29.642;-50.764;2022-07-01T04:11:48;27.77;;;18.42;;
65599;SDS011;52272;-29.642;-50.764;2022-07-01T04:14:19;22.13;;;12.93;;
65599;SDS011;52272;-29.642;-50.764;2022-07-01T04:16:49;22.33;;;12.05;;
65599;SDS011;52272;-29.642;-50.764;2022-07-01T04:19:20;19.83;;;12.10;;
65599;SDS011;52272;-29.642;-50.764;2022-07-01T04:21:50;40.13;;;9.05;;
65599;SDS011;52272;-29.642;-50.764;2022-07-01T04:24:39;26.10;;;10.30;;
65599;SDS011;52272;-29.642;-50.764;2022-07-01T04:27:09;14.88;;;9.70;;
65599;SDS011;52272;-29.642;-50.764;2022-07-01T04:29:42;21.67;;;8.13;;
65599;SDS011;52272;-29.642;-50.764;2022-07-01T04:32:12;24.95;;;7.28;;
65599;SDS011;52272;-29.642;-50.764;2022-07-01T04:34:42;21.33;;;7.40;;
65599;SDS011;52272;-29.642;-50.764;2022-07-01T04:37:12;10.48;;;6.93;;
65599;SDS011;52272;-29.642;-50.764;2022-07-01T04:39:43;10.52;;;7.55;;
65599;SDS011;52272;-29.642;-50.764;2022-07-01T04:42:13;14.07;;;8.55;;
65599;SDS011;52272;-29.642;-50.764;2022-07-01T04:44:44;15.05;;;8.32;;
65599;SDS011;52272;-29.642;-50.764;2022-07-01T04:47:15;15.20;;;8.60;;
65599;SDS011;52272;-29.642;-50.764;2022-07-01T04:49:47;17.38;;;9.90;;
65599;SDS011;52272;-29.642;-50.764;2022-07-01T04:52:17;65.55;;;17.33;;
65599;SDS011;52272;-29.642;-50.764;2022-07-01T04:54:48;98.40;;;17.70;;
65599;SDS011;52272;-29.642;-50.764;2022-07-01T04:57:17;119.15;;;17.98;;
65599;SDS011;52272;-29.642;-50.764;2022-07-01T04:59:48;107.05;;;22.45;;
65599;SDS011;52272;-29.642;-50.764;2022-07-01T05:02:18;104.68;;;24.10;;
65599;SDS011;52272;-29.642;-50.764;2022-07-01T05:04:49;76.97;;;23.48;;
65599;SDS011;52272;-29.642;-50.764;2022-07-01T05:07:19;29.55;;;17.80;;
65599;SDS011;52272;-29.642;-50.764;2022-07-01T05:09:58;31.75;;;16.27;;
65599;SDS011;52272;-29.642;-50.764;2022-07-01T05:12:28;48.70;;;19.48;;
65599;SDS011;52272;-29.642;-50.764;2022-07-01T05:14:58;35.20;;;16.38;;
65599;SDS011;52272;-29.642;-50.764;2022-07-01T05:17:31;37.28;;;17.33;;
65599;SDS011;52272;-29.642;-50.764;2022-07-01T05:20:21;70.13;;;19.95;;
65599;SDS011;52272;-29.642;-50.764;2022-07-01T05:23:09;59.35;;;20.75;;
65599;SDS011;52272;-29.642;-50.764;2022-07-01T05:25:39;53.50;;;22.58;;
65599;SDS011;52272;-29.642;-50.764;2022-07-01T05:28:09;41.90;;;21.33;;
65599;SDS011;52272;-29.642;-50.764;2022-07-01T05:30:40;46.47;;;22.48;;
65599;SDS011;52272;-29.642;-50.764;2022-07-01T05:33:10;37.95;;;20.17;;
65599;SDS011;52272;-29.642;-50.764;2022-07-01T05:35:40;35.20;;;19.52;;
65599;SDS011;52272;-29.642;-50.764;2022-07-01T05:38:10;21.75;;;12.93;;
65599;SDS011;52272;-29.642;-50.764;2022-07-01T05:40:40;11.55;;;7.38;;
65599;SDS011;52272;-29.642;-50.764;2022-07-01T05:43:10;11.95;;;5.95;;
65599;SDS011;52272;-29.642;-50.764;2022-07-01T05:45:41;9.48;;;6.60;;
65599;SDS011;52272;-29.642;-50.764;2022-07-01T05:48:10;11.63;;;6.32;;
65599;SDS011;52272;-29.642;-50.764;2022-07-01T05:50:41;9.35;;;5.95;;
65599;SDS011;52272;-29.642;-50.764;2022-07-01T05:53:15;13.00;;;6.47;;
65599;SDS011;52272;-29.642;-50.764;2022-07-01T05:55:46;15.80;;;6.82;;
65599;SDS011;52272;-29.642;-50.764;2022-07-01T05:58:16;15.18;;;9.27;;
65599;SDS011;52272;-29.642;-50.764;2022-07-01T06:00:47;16.50;;;9.73;;
65599;SDS011;52272;-29.642;-50.764;2022-07-01T06:03:17;15.10;;;9.30;;
65599;SDS011;52272;-29.642;-50.764;2022-07-01T06:05:48;17.08;;;10.18;;
65599;SDS011;52272;-29.642;-50.764;2022-07-01T06:08:19;14.68;;;9.13;;
65599;SDS011;52272;-29.642;-50.764;2022-07-01T06:10:49;15.00;;;9.68;;
65599;SDS011;52272;-29.642;-50.764;2022-07-01T06:13:19;17.90;;;10.32;;
65599;SDS011;52272;-29.642;-50.764;2022-07-01T06:15:49;21.27;;;10.90;;
65599;SDS011;52272;-29.642;-50.764;2022-07-01T06:18:23;41.42;;;13.20;;
65599;SDS011;52272;-29.642;-50.764;2022-07-01T06:20:53;21.83;;;12.13;;
65599;SDS011;52272;-29.642;-50.764;2022-07-01T06:23:24;24.10;;;13.80;;
65599;SDS011;52272;-29.642;-50.764;2022-07-01T06:25:54;25.15;;;15.10;;
65599;SDS011;52272;-29.642;-50.764;2022-07-01T06:28:24;22.40;;;14.05;;
65599;SDS011;52272;-29.642;-50.764;2022-07-01T06:30:58;27.33;;;15.88;;
65599;SDS011;52272;-29.642;-50.764;2022-07-01T06:36:00;18.02;;;10.27;;
65599;SDS011;52272;-29.642;-50.764;2022-07-01T06:38:30;15.70;;;10.13;;
65599;SDS011;52272;-29.642;-50.764;2022-07-01T06:41:03;14.52;;;9.75;;
65599;SDS011;52272;-29.642;-50.764;2022-07-01T06:43:51;19.50;;;10.77;;
65599;SDS011;52272;-29.642;-50.764;2022-07-01T06:46:25;15.35;;;9.68;;
65599;SDS011;52272;-29.642;-50.764;2022-07-01T06:48:57;14.02;;;8.98;;
65599;SDS011;52272;-29.642;-50.764;2022-07-01T06:51:27;16.52;;;10.38;;
65599;SDS011;52272;-29.642;-50.764;2022-07-01T06:53:58;14.57;;;8.93;;
65599;SDS011;52272;-29.642;-50.764;2022-07-01T06:56:28;16.05;;;9.57;;
65599;SDS011;52272;-29.642;-50.764;2022-07-01T06:58:58;16.63;;;10.60;;
65599;SDS011;52272;-29.642;-50.764;2022-07-01T07:01:28;20.63;;;11.65;;
65599;SDS011;52272;-29.642;-50.764;2022-07-01T07:03:59;22.92;;;12.27;;
65599;SDS011;52272;-29.642;-50.764;2022-07-01T07:06:29;21.60;;;11.95;;
65599;SDS011;52272;-29.642;-50.764;2022-07-01T07:09:03;24.83;;;13.05;;
65599;SDS011;52272;-29.642;-50.764;2022-07-01T07:11:33;19.92;;;12.50;;
65599;SDS011;52272;-29.642;-50.764;2022-07-01T07:14:04;34.90;;;13.50;;
65599;SDS011;52272;-29.642;-50.764;2022-07-01T07:16:33;28.70;;;13.38;;
65599;SDS011;52272;-29.642;-50.764;2022-07-01T07:19:04;25.65;;;14.23;;
65599;SDS011;52272;-29.642;-50.764;2022-07-01T07:21:34;18.95;;;11.82;;
65599;SDS011;52272;-29.642;-50.764;2022-07-01T07:24:05;20.98;;;12.55;;
65599;SDS011;52272;-29.642;-50.764;2022-07-01T07:26:35;19.42;;;11.85;;
65599;SDS011;52272;-29.642;-50.764;2022-07-01T07:29:08;15.48;;;9.68;;
65599;SDS011;52272;-29.642;-50.764;2022-07-01T07:31:38;19.45;;;11.27;;
65599;SDS011;52272;-29.642;-50.764;2022-07-01T07:34:09;14.48;;;8.57;;
65599;SDS011;52272;-29.642;-50.764;2022-07-01T07:36:39;12.75;;;8.75;;
65599;SDS011;52272;-29.642;-50.764;2022-07-01T07:39:10;14.50;;;9.00;;
65599;SDS011;52272;-29.642;-50.764;2022-07-01T07:41:40;15.32;;;8.68;;
65599;SDS011;52272;-29.642;-50.764;2022-07-01T07:44:11;14.90;;;9.32;;
65599;SDS011;52272;-29.642;-50.764;2022-07-01T07:46:41;15.00;;;9.00;;
65599;SDS011;52272;-29.642;-50.764;2022-07-01T07:49:11;12.25;;;8.88;;
65599;SDS011;52272;-29.642;-50.764;2022-07-01T07:51:41;19.95;;;10.77;;
65599;SDS011;52272;-29.642;-50.764;2022-07-01T07:54:12;14.52;;;7.93;;
65599;SDS011;52272;-29.642;-50.764;2022-07-01T07:56:45;23.40;;;11.63;;
65599;SDS011;52272;-29.642;-50.764;2022-07-01T07:59:16;12.07;;;8.18;;
65599;SDS011;52272;-29.642;-50.764;2022-07-01T08:01:46;55.22;;;12.23;;
65599;SDS011;52272;-29.642;-50.764;2022-07-01T08:04:16;41.00;;;10.88;;
65599;SDS011;52272;-29.642;-50.764;2022-07-01T08:06:46;31.60;;;10.27;;
65599;SDS011;52272;-29.642;-50.764;2022-07-01T08:09:16;21.60;;;7.70;;
65599;SDS011;52272;-29.642;-50.764;2022-07-01T08:11:47;20.63;;;7.43;;
65599;SDS011;52272;-29.642;-50.764;2022-07-01T08:14:17;28.65;;;8.10;;
65599;SDS011;52272;-29.642;-50.764;2022-07-01T08:16:51;13.57;;;7.00;;
65599;SDS011;52272;-29.642;-50.764;2022-07-01T08:19:21;12.68;;;7.03;;
65599;SDS011;52272;-29.642;-50.764;2022-07-01T08:21:51;10.65;;;7.05;;
65599;SDS011;52272;-29.642;-50.764;2022-07-01T08:24:21;11.75;;;6.32;;
65599;SDS011;52272;-29.642;-50.764;2022-07-01T08:26:52;35.30;;;7.28;;
65599;SDS011;52272;-29.642;-50.764;2022-07-01T08:29:22;20.45;;;6.57;;
65599;SDS011;52272;-29.642;-50.764;2022-07-01T08:31:52;28.80;;;5.95;;
65599;SDS011;52272;-29.642;-50.764;2022-07-01T08:34:23;40.72;;;6.97;;
65599;SDS011;52272;-29.642;-50.764;2022-07-01T08:36:53;20.98;;;7.68;;
65599;SDS011;52272;-29.642;-50.764;2022-07-01T08:39:23;9.80;;;6.65;;
65599;SDS011;52272;-29.642;-50.764;2022-07-01T08:41:54;60.00;;;11.80;;
65599;SDS011;52272;-29.642;-50.764;2022-07-01T08:44:25;26.27;;;7.43;;
65599;SDS011;52272;-29.642;-50.764;2022-07-01T08:46:56;56.03;;;7.90;;
65599;SDS011;52272;-29.642;-50.764;2022-07-01T08:49:26;22.75;;;6.95;;
65599;SDS011;52272;-29.642;-50.764;2022-07-01T08:51:56;16.23;;;6.07;;
65599;SDS011;52272;-29.642;-50.764;2022-07-01T08:54:26;15.77;;;5.40;;
65599;SDS011;52272;-29.642;-50.764;2022-07-01T08:56:56;20.13;;;6.35;;
65599;SDS011;52272;-29.642;-50.764;2022-07-01T08:59:26;21.45;;;5.68;;
65599;SDS011;52272;-29.642;-50.764;2022-07-01T09:04:28;13.45;;;5.55;;
65599;SDS011;52272;-29.642;-50.764;2022-07-01T09:07:04;11.30;;;5.93;;
65599;SDS011;52272;-29.642;-50.764;2022-07-01T09:09:37;29.92;;;5.15;;
65599;SDS011;52272;-29.642;-50.764;2022-07-01T09:12:10;23.38;;;5.40;;
65599;SDS011;52272;-29.642;-50.764;2022-07-01T09:14:40;36.92;;;7.47;;
65599;SDS011;52272;-29.642;-50.764;2022-07-01T09:17:12;13.60;;;6.15;;
65599;SDS011;52272;-29.642;-50.764;2022-07-01T09:19:49;13.00;;;7.35;;
65599;SDS011;52272;-29.642;-50.764;2022-07-01T09:22:20;23.60;;;7.90;;
65599;SDS011;52272;-29.642;-50.764;2022-07-01T09:24:50;21.63;;;6.65;;
65599;SDS011;52272;-29.642;-50.764;2022-07-01T09:27:23;11.95;;;6.65;;
65599;SDS011;52272;-29.642;-50.764;2022-07-01T09:29:55;12.55;;;6.72;;
65599;SDS011;52272;-29.642;-50.764;2022-07-01T09:32:26;12.68;;;6.93;;
65599;SDS011;52272;-29.642;-50.764;2022-07-01T09:34:56;11.27;;;6.80;;
65599;SDS011;52272;-29.642;-50.764;2022-07-01T09:37:28;16.20;;;7.05;;
65599;SDS011;52272;-29.642;-50.764;2022-07-01T09:39:59;14.20;;;7.50;;
65599;SDS011;52272;-29.642;-50.764;2022-07-01T09:42:29;11.70;;;6.63;;
65599;SDS011;52272;-29.642;-50.764;2022-07-01T09:45:06;9.60;;;5.68;;
65599;SDS011;52272;-29.642;-50.764;2022-07-01T09:47:39;10.23;;;6.10;;
65599;SDS011;52272;-29.642;-50.764;2022-07-01T09:50:13;8.85;;;6.30;;
65599;SDS011;52272;-29.642;-50.764;2022-07-01T09:52:44;11.23;;;6.55;;
65599;SDS011;52272;-29.642;-50.764;2022-07-01T09:55:14;9.20;;;5.43;;
65599;SDS011;52272;-29.642;-50.764;2022-07-01T09:57:44;13.55;;;6.55;;
65599;SDS011;52272;-29.642;-50.764;2022-07-01T10:00:15;10.95;;;6.22;;
65599;SDS011;52272;-29.642;-50.764;2022-07-01T10:02:45;19.85;;;6.90;;
65599;SDS011;52272;-29.642;-50.764;2022-07-01T10:05:19;13.52;;;6.72;;
65599;SDS011;52272;-29.642;-50.764;2022-07-01T10:08:05;45.05;;;8.70;;
65599;SDS011;52272;-29.642;-50.764;2022-07-01T10:10:57;48.50;;;9.77;;
65599;SDS011;52272;-29.642;-50.764;2022-07-01T10:13:43;54.90;;;11.23;;
65599;SDS011;52272;-29.642;-50.764;2022-07-01T10:16:20;40.10;;;9.55;;
65599;SDS011;52272;-29.642;-50.764;2022-07-01T10:18:50;43.83;;;8.85;;
65599;SDS011;52272;-29.642;-50.764;2022-07-01T10:21:27;70.05;;;12.60;;
65599;SDS011;52272;-29.642;-50.764;2022-07-01T10:26:42;42.05;;;9.52;;
65599;SDS011;52272;-29.642;-50.764;2022-07-01T10:32:09;45.78;;;10.15;;
65599;SDS011;52272;-29.642;-50.764;2022-07-01T10:35:16;21.10;;;8.48;;
65599;SDS011;52272;-29.642;-50.764;2022-07-01T10:40:42;34.83;;;9.75;;
65599;SDS011;52272;-29.642;-50.764;2022-07-01T10:43:32;99.53;;;15.77;;
65599;SDS011;52272;-29.642;-50.764;2022-07-01T10:46:04;21.15;;;10.88;;
65599;SDS011;52272;-29.642;-50.764;2022-07-01T10:48:34;28.40;;;10.50;;
65599;SDS011;52272;-29.642;-50.764;2022-07-01T10:51:04;33.30;;;12.52;;
65599;SDS011;52272;-29.642;-50.764;2022-07-01T10:53:46;88.00;;;14.18;;
65599;SDS011;52272;-29.642;-50.764;2022-07-01T10:56:26;98.97;;;16.98;;
65599;SDS011;52272;-29.642;-50.764;2022-07-01T10:59:16;55.88;;;13.68;;
65599;SDS011;52272;-29.642;-50.764;2022-07-01T11:01:48;37.63;;;14.02;;
65599;SDS011;52272;-29.642;-50.764;2022-07-01T11:04:18;26.88;;;14.02;;
65599;SDS011;52272;-29.642;-50.764;2022-07-01T11:06:48;25.63;;;11.82;;
65599;SDS011;52272;-29.642;-50.764;2022-07-01T11:09:18;84.57;;;16.35;;
65599;SDS011;52272;-29.642;-50.764;2022-07-01T11:11:48;65.55;;;16.55;;
65599;SDS011;52272;-29.642;-50.764;2022-07-01T11:14:19;33.20;;;14.68;;
65599;SDS011;52272;-29.642;-50.764;2022-07-01T11:16:50;44.15;;;16.98;;
65599;SDS011;52272;-29.642;-50.764;2022-07-01T11:19:21;43.47;;;18.15;;
65599;SDS011;52272;-29.642;-50.764;2022-07-01T11:21:53;25.38;;;14.00;;
65599;SDS011;52272;-29.642;-50.764;2022-07-01T11:24:24;55.35;;;16.60;;
65599;SDS011;52272;-29.642;-50.764;2022-07-01T11:27:08;160.45;;;27.73;;
65599;SDS011;52272;-29.642;-50.764;2022-07-01T11:29:38;70.15;;;23.33;;
65599;SDS011;52272;-29.642;-50.764;2022-07-01T11:34:39;39.63;;;18.63;;
65599;SDS011;52272;-29.642;-50.764;2022-07-01T11:37:09;56.70;;;19.48;;
65599;SDS011;52272;-29.642;-50.764;2022-07-01T11:40:07;36.72;;;19.95;;
65599;SDS011;52272;-29.642;-50.764;2022-07-01T11:42:39;33.72;;;19.58;;
65599;SDS011;52272;-29.642;-50.764;2022-07-01T11:45:22;31.77;;;18.10;;
65599;SDS011;52272;-29.642;-50.764;2022-07-01T11:47:54;24.92;;;16.10;;
65599;SDS011;52272;-29.642;-50.764;2022-07-01T11:50:24;27.35;;;14.55;;
65599;SDS011;52272;-29.642;-50.764;2022-07-01T11:52:56;29.33;;;16.92;;
65599;SDS011;52272;-29.642;-50.764;2022-07-01T11:55:26;22.02;;;13.70;;
65599;SDS011;52272;-29.642;-50.764;2022-07-01T11:58:05;23.30;;;14.73;;
65599;SDS011;52272;-29.642;-50.764;2022-07-01T12:00:36;22.88;;;14.55;;
65599;SDS011;52272;-29.642;-50.764;2022-07-01T12:03:08;25.52;;;15.70;;
65599;SDS011;52272;-29.642;-50.764;2022-07-01T12:05:39;29.90;;;15.77;;
65599;SDS011;52272;-29.642;-50.764;2022-07-01T12:10:40;39.30;;;15.30;;
65599;SDS011;52272;-29.642;-50.764;2022-07-01T12:15:51;27.52;;;14.93;;
65599;SDS011;52272;-29.642;-50.764;2022-07-01T12:18:22;25.30;;;14.23;;
65599;SDS011;52272;-29.642;-50.764;2022-07-01T12:20:55;24.52;;;14.45;;
65599;SDS011;52272;-29.642;-50.764;2022-07-01T12:23:27;26.00;;;13.50;;
65599;SDS011;52272;-29.642;-50.764;2022-07-01T12:26:04;41.03;;;14.10;;
65599;SDS011;52272;-29.642;-50.764;2022-07-01T12:28:38;31.80;;;17.75;;
65599;SDS011;52272;-29.642;-50.764;2022-07-01T12:31:09;35.45;;;18.90;;
65599;SDS011;52272;-29.642;-50.764;2022-07-01T12:33:48;41.30;;;17.67;;
65599;SDS011;52272;-29.642;-50.764;2022-07-01T12:36:19;42.67;;;18.55;;
65599;SDS011;52272;-29.642;-50.764;2022-07-01T12:39:00;27.23;;;16.55;;
65599;SDS011;52272;-29.642;-50.764;2022-07-01T12:41:39;24.73;;;16.00;;
65599;SDS011;52272;-29.642;-50.764;2022-07-01T12:44:24;30.75;;;18.33;;
65599;SDS011;52272;-29.642;-50.764;2022-07-01T12:46:57;30.58;;;18.30;;
65599;SDS011;52272;-29.642;-50.764;2022-07-01T12:49:28;29.13;;;17.98;;
65599;SDS011;52272;-29.642;-50.764;2022-07-01T12:51:58;33.17;;;20.30;;
65599;SDS011;52272;-29.642;-50.764;2022-07-01T12:54:35;37.15;;;20.08;;
65599;SDS011;52272;-29.642;-50.764;2022-07-01T12:57:07;37.45;;;22.65;;
65599;SDS011;52272;-29.642;-50.764;2022-07-01T12:59:38;37.08;;;22.30;;
65599;SDS011;52272;-29.642;-50.764;2022-07-01T13:02:09;35.65;;;20.25;;
65599;SDS011;52272;-29.642;-50.764;2022-07-01T13:04:40;36.72;;;22.48;;
65599;SDS011;52272;-29.642;-50.764;2022-07-01T13:07:10;34.42;;;21.40;;
65599;SDS011;52272;-29.642;-50.764;2022-07-01T13:09:41;32.88;;;20.65;;
65599;SDS011;52272;-29.642;-50.764;2022-07-01T13:12:12;31.75;;;19.55;;
65599;SDS011;52272;-29.642;-50.764;2022-07-01T13:14:42;28.45;;;19.52;;
65599;SDS011;52272;-29.642;-50.764;2022-07-01T13:17:13;27.88;;;18.95;;
65599;SDS011;52272;-29.642;-50.764;2022-07-01T13:19:43;24.83;;;17.98;;
65599;SDS011;52272;-29.642;-50.764;2022-07-01T13:22:14;21.65;;;16.33;;
65599;SDS011;52272;-29.642;-50.764;2022-07-01T13:24:45;20.17;;;13.32;;
65599;SDS011;52272;-29.642;-50.764;2022-07-01T13:27:15;16.27;;;10.52;;
65599;SDS011;52272;-29.642;-50.764;2022-07-01T13:29:46;13.40;;;9.93;;
65599;SDS011;52272;-29.642;-50.764;2022-07-01T13:32:17;12.63;;;8.70;;
65599;SDS011;52272;-29.642;-50.764;2022-07-01T13:34:47;12.18;;;8.05;;
65599;SDS011;52272;-29.642;-50.764;2022-07-01T13:37:18;10.63;;;7.88;;
65599;SDS011;52272;-29.642;-50.764;2022-07-01T13:39:49;13.73;;;8.00;;
65599;SDS011;52272;-29.642;-50.764;2022-07-01T13:42:19;10.20;;;6.75;;
65599;SDS011;52272;-29.642;-50.764;2022-07-01T13:44:50;8.32;;;5.68;;
65599;SDS011;52272;-29.642;-50.764;2022-07-01T13:47:21;9.57;;;6.35;;
65599;SDS011;52272;-29.642;-50.764;2022-07-01T13:49:52;6.55;;;5.47;;
65599;SDS011;52272;-29.642;-50.764;2022-07-01T13:52:23;9.25;;;5.40;;
65599;SDS011;52272;-29.642;-50.764;2022-07-01T13:54:54;8.63;;;5.60;;
65599;SDS011;52272;-29.642;-50.764;2022-07-01T13:57:25;13.43;;;6.03;;
65599;SDS011;52272;-29.642;-50.764;2022-07-01T13:59:56;9.90;;;5.70;;
65599;SDS011;52272;-29.642;-50.764;2022-07-01T14:04:56;8.88;;;6.20;;
65599;SDS011;52272;-29.642;-50.764;2022-07-01T14:07:26;8.50;;;5.72;;
65599;SDS011;52272;-29.642;-50.764;2022-07-01T14:09:56;8.65;;;5.43;;
65599;SDS011;52272;-29.642;-50.764;2022-07-01T14:12:27;6.78;;;5.03;;
65599;SDS011;52272;-29.642;-50.764;2022-07-01T14:17:27;9.25;;;4.60;;
65599;SDS011;52272;-29.642;-50.764;2022-07-01T14:19:58;9.65;;;5.25;;
65599;SDS011;52272;-29.642;-50.764;2022-07-01T14:22:29;7.03;;;4.28;;
65599;SDS011;52272;-29.642;-50.764;2022-07-01T14:25:01;5.43;;;4.13;;
65599;SDS011;52272;-29.642;-50.764;2022-07-01T14:27:32;7.03;;;3.92;;
65599;SDS011;52272;-29.642;-50.764;2022-07-01T14:30:03;8.90;;;3.75;;
65599;SDS011;52272;-29.642;-50.764;2022-07-01T14:32:37;7.45;;;4.60;;
65599;SDS011;52272;-29.642;-50.764;2022-07-01T14:35:08;4.97;;;3.55;;
65599;SDS011;52272;-29.642;-50.764;2022-07-01T14:37:38;6.40;;;3.33;;
65599;SDS011;52272;-29.642;-50.764;2022-07-01T14:40:12;6.93;;;3.63;;
65599;SDS011;52272;-29.642;-50.764;2022-07-01T14:42:42;8.30;;;2.95;;
65599;SDS011;52272;-29.642;-50.764;2022-07-01T14:45:13;4.38;;;2.92;;
65599;SDS011;52272;-29.642;-50.764;2022-07-01T14:47:44;5.97;;;2.70;;